createdAt,value
2018-05-27T00:00:07.297Z,6.20
2018-05-27T00:02:34.888Z,5.17
2018-05-27T00:05:02.433Z,5.00
2018-05-27T00:07:30.030Z,5.20
2018-05-27T00:09:57.579Z,6.33
2018-05-27T00:12:25.148Z,6.00
2018-05-27T00:14:52.670Z,5.90
2018-05-27T00:17:20.244Z,5.47
2018-05-27T00:19:47.828Z,6.03
2018-05-27T00:22:15.430Z,6.73
2018-05-27T00:24:43.019Z,5.60
2018-05-27T00:27:10.588Z,5.03
2018-05-27T00:29:38.146Z,4.73
2018-05-27T00:32:05.766Z,5.07
2018-05-27T00:34:33.338Z,5.63
2018-05-27T00:37:00.891Z,6.30
2018-05-27T00:39:28.468Z,6.00
2018-05-27T00:41:56.052Z,6.57
2018-05-27T00:44:23.648Z,6.30
2018-05-27T00:46:51.929Z,6.27
2018-05-27T00:49:19.524Z,6.30
2018-05-27T00:51:47.099Z,6.37
2018-05-27T00:54:14.729Z,7.03
2018-05-27T00:56:42.290Z,6.87
2018-05-27T00:59:09.856Z,6.23
2018-05-27T01:01:37.422Z,5.83
2018-05-27T01:04:06.529Z,5.50
2018-05-27T01:06:34.098Z,5.43
2018-05-27T01:09:01.670Z,5.50
2018-05-27T01:11:29.275Z,5.87
2018-05-27T01:13:56.861Z,5.70
2018-05-27T01:16:24.452Z,6.50
2018-05-27T01:18:52.039Z,6.13
2018-05-27T01:21:19.592Z,6.13
2018-05-27T01:23:47.168Z,6.57
2018-05-27T01:26:14.756Z,7.00
2018-05-27T01:28:42.342Z,6.53
2018-05-27T01:31:09.925Z,5.83
2018-05-27T01:33:37.467Z,6.57
2018-05-27T01:36:05.051Z,7.37
2018-05-27T01:38:32.626Z,7.17
2018-05-27T01:41:00.218Z,6.93
2018-05-27T01:43:27.774Z,6.80
2018-05-27T01:45:55.393Z,6.40
2018-05-27T01:48:22.932Z,6.07
2018-05-27T01:50:50.542Z,6.20
2018-05-27T01:53:18.080Z,6.40
2018-05-27T01:55:45.706Z,5.90
2018-05-27T01:58:13.304Z,5.50
2018-05-27T02:00:40.908Z,5.30
2018-05-27T02:03:08.481Z,6.00
2018-05-27T02:05:36.049Z,6.40
2018-05-27T02:08:03.593Z,5.57
2018-05-27T02:10:31.189Z,5.60
2018-05-27T02:12:58.726Z,5.87
2018-05-27T02:15:26.294Z,6.20
2018-05-27T02:17:53.858Z,6.20
2018-05-27T02:20:21.428Z,5.80
2018-05-27T02:22:48.957Z,5.90
2018-05-27T02:25:16.552Z,5.90
2018-05-27T02:27:44.114Z,5.50
2018-05-27T02:30:11.685Z,5.27
2018-05-27T02:32:39.257Z,5.30
2018-05-27T02:35:06.833Z,5.60
2018-05-27T02:37:34.398Z,5.63
2018-05-27T02:40:01.955Z,5.83
2018-05-27T02:42:29.537Z,5.70
2018-05-27T02:44:57.061Z,5.80
2018-05-27T02:47:24.637Z,6.10
2018-05-27T02:49:52.223Z,5.90
2018-05-27T02:52:19.847Z,5.43
2018-05-27T02:54:47.424Z,6.60
2018-05-27T02:57:15.018Z,6.87
2018-05-27T02:59:42.547Z,6.40
2018-05-27T03:02:10.140Z,5.60
2018-05-27T03:04:38.081Z,6.47
2018-05-27T03:07:05.691Z,6.37
2018-05-27T03:09:33.660Z,6.27
2018-05-27T03:12:01.230Z,6.10
2018-05-27T03:14:28.918Z,6.37
2018-05-27T03:16:56.515Z,6.00
2018-05-27T03:19:24.059Z,5.90
2018-05-27T03:21:51.650Z,7.00
2018-05-27T03:24:19.192Z,6.87
2018-05-27T03:26:46.770Z,6.80
2018-05-27T03:29:14.352Z,6.60
2018-05-27T03:31:42.329Z,7.00
2018-05-27T03:34:09.905Z,6.97
2018-05-27T03:36:37.500Z,6.80
2018-05-27T03:39:05.791Z,6.70
2018-05-27T03:41:33.362Z,6.80
2018-05-27T03:44:00.937Z,6.70
2018-05-27T03:46:28.474Z,6.57
2018-05-27T03:48:56.054Z,6.33
2018-05-27T03:51:23.591Z,6.80
2018-05-27T03:53:51.177Z,6.40
2018-05-27T03:56:18.746Z,7.00
2018-05-27T03:58:46.349Z,7.13
2018-05-27T04:01:13.906Z,6.47
2018-05-27T04:03:41.517Z,7.23
2018-05-27T04:06:20.892Z,6.50
2018-05-27T04:08:49.333Z,6.50
2018-05-27T04:11:16.864Z,6.50
2018-05-27T04:13:44.432Z,6.13
2018-05-27T04:16:12.050Z,6.77
2018-05-27T04:18:39.633Z,6.23
2018-05-27T04:21:07.223Z,6.30
2018-05-27T04:23:34.790Z,6.00
2018-05-27T04:26:03.549Z,5.97
2018-05-27T04:28:31.258Z,6.47
2018-05-27T04:30:58.767Z,6.57
2018-05-27T04:33:26.355Z,6.33
2018-05-27T04:35:53.914Z,6.03
2018-05-27T04:38:21.489Z,6.67
2018-05-27T04:40:49.083Z,6.73
2018-05-27T04:43:16.676Z,6.70
2018-05-27T04:45:44.246Z,6.67
2018-05-27T04:48:11.817Z,6.43
2018-05-27T04:50:39.372Z,5.83
2018-05-27T04:53:06.991Z,5.77
2018-05-27T04:55:34.568Z,5.87
2018-05-27T04:58:02.141Z,5.40
2018-05-27T05:00:29.705Z,6.10
2018-05-27T05:02:57.316Z,5.87
2018-05-27T05:05:24.877Z,6.30
2018-05-27T05:07:52.408Z,5.90
2018-05-27T05:10:19.985Z,6.03
2018-05-27T05:12:47.551Z,6.50
2018-05-27T05:15:15.169Z,6.30
2018-05-27T05:17:42.709Z,6.10
2018-05-27T05:20:10.338Z,5.60
2018-05-27T05:22:37.906Z,5.97
2018-05-27T05:25:05.486Z,5.73
2018-05-27T05:27:33.028Z,5.70
2018-05-27T05:30:00.598Z,5.83
2018-05-27T05:32:28.147Z,5.50
2018-05-27T05:34:55.733Z,5.57
2018-05-27T05:37:23.303Z,5.00
2018-05-27T05:39:50.906Z,4.77
2018-05-27T05:42:18.434Z,5.20
2018-05-27T05:44:46.051Z,5.30
2018-05-27T05:47:13.639Z,5.50
2018-05-27T05:49:41.231Z,5.60
2018-05-27T05:52:08.842Z,5.80
2018-05-27T05:54:36.447Z,5.73
2018-05-27T05:57:04.019Z,6.27
2018-05-27T05:59:31.590Z,6.00
2018-05-27T06:01:59.182Z,5.70
2018-05-27T06:04:26.766Z,5.03
2018-05-27T06:06:54.742Z,5.00
2018-05-27T06:09:22.316Z,5.53
2018-05-27T06:11:50.020Z,5.43
2018-05-27T06:14:17.645Z,4.90
2018-05-27T06:16:45.201Z,5.03
2018-05-27T06:19:12.738Z,5.63
2018-05-27T06:21:40.310Z,5.47
2018-05-27T06:24:07.898Z,5.40
2018-05-27T06:26:35.438Z,5.13
2018-05-27T06:29:02.989Z,5.07
2018-05-27T06:31:30.530Z,5.00
2018-05-27T06:33:58.109Z,4.60
2018-05-27T06:36:25.645Z,5.17
2018-05-27T06:38:53.222Z,4.43
2018-05-27T06:41:20.772Z,4.80
2018-05-27T06:43:48.304Z,4.80
2018-05-27T06:46:15.889Z,4.43
2018-05-27T06:48:43.442Z,4.60
2018-05-27T06:51:11.032Z,4.60
2018-05-27T06:53:38.571Z,3.97
2018-05-27T06:56:06.175Z,4.70
2018-05-27T06:58:33.804Z,4.17
2018-05-27T07:01:01.788Z,4.23
2018-05-27T07:03:29.408Z,4.43
2018-05-27T07:05:56.975Z,4.77
2018-05-27T07:08:24.556Z,4.23
2018-05-27T07:10:52.184Z,3.90
2018-05-27T07:13:19.722Z,3.80
2018-05-27T07:15:47.741Z,4.00
2018-05-27T07:18:15.264Z,4.00
2018-05-27T07:20:42.813Z,4.00
2018-05-27T07:23:10.785Z,3.60
2018-05-27T07:25:38.381Z,3.70
2018-05-27T07:28:05.929Z,3.90
2018-05-27T07:30:33.499Z,3.57
2018-05-27T07:33:01.092Z,3.17
2018-05-27T07:35:28.638Z,3.53
2018-05-27T07:37:56.227Z,3.50
2018-05-27T07:40:23.838Z,3.50
2018-05-27T07:42:51.424Z,3.57
2018-05-27T07:45:19.013Z,3.40
2018-05-27T07:47:46.606Z,4.13
2018-05-27T07:50:14.157Z,3.80
2018-05-27T07:52:41.721Z,3.30
2018-05-27T07:55:09.254Z,3.80
2018-05-27T07:57:36.920Z,3.30
2018-05-27T08:00:04.616Z,3.60
2018-05-27T08:02:32.246Z,3.27
2018-05-27T08:04:59.854Z,3.27
2018-05-27T08:07:27.489Z,3.00
2018-05-27T08:09:55.062Z,3.30
2018-05-27T08:12:24.749Z,3.17
2018-05-27T08:14:52.607Z,3.23
2018-05-27T08:17:20.207Z,2.90
2018-05-27T08:19:47.842Z,3.33
2018-05-27T08:22:15.864Z,3.00
2018-05-27T08:24:43.419Z,3.03
2018-05-27T08:27:11.429Z,3.37
2018-05-27T08:29:38.960Z,3.03
2018-05-27T08:32:06.542Z,3.13
2018-05-27T08:34:34.118Z,3.23
2018-05-27T08:37:01.718Z,3.43
2018-05-27T08:39:29.759Z,3.20
2018-05-27T08:41:57.362Z,3.50
2018-05-27T08:44:25.855Z,3.10
2018-05-27T08:46:53.399Z,3.10
2018-05-27T08:49:20.974Z,3.70
2018-05-27T08:51:48.548Z,3.43
2018-05-27T08:54:16.112Z,3.50
2018-05-27T08:56:43.700Z,3.60
2018-05-27T08:59:11.592Z,3.83
2018-05-27T09:01:39.561Z,3.43
2018-05-27T09:04:07.168Z,3.70
2018-05-27T09:06:34.745Z,3.63
2018-05-27T09:09:02.382Z,3.47
2018-05-27T09:11:29.942Z,3.30
2018-05-27T09:13:57.566Z,3.57
2018-05-27T09:16:25.558Z,3.30
2018-05-27T09:18:53.155Z,3.50
2018-05-27T09:21:20.747Z,3.17
2018-05-27T09:23:48.349Z,3.40
2018-05-27T09:26:15.931Z,3.63
2018-05-27T09:28:43.553Z,3.30
2018-05-27T09:31:11.114Z,3.13
2018-05-27T09:33:38.739Z,3.40
2018-05-27T09:36:06.685Z,3.30
2018-05-27T09:38:34.249Z,3.30
2018-05-27T09:41:02.252Z,2.97
2018-05-27T09:43:29.809Z,3.10
2018-05-27T09:45:57.541Z,3.00
2018-05-27T09:48:25.965Z,2.80
2018-05-27T09:50:54.316Z,2.87
2018-05-27T09:53:21.851Z,3.40
2018-05-27T09:55:49.448Z,3.10
2018-05-27T09:58:17.709Z,2.90
2018-05-27T10:00:45.358Z,3.50
2018-05-27T10:03:12.898Z,3.07
2018-05-27T10:05:40.499Z,3.73
2018-05-27T10:08:08.817Z,3.03
2018-05-27T10:10:36.425Z,3.17
2018-05-27T10:13:04.014Z,3.17
2018-05-27T10:15:31.593Z,3.57
2018-05-27T10:17:59.157Z,3.70
2018-05-27T10:20:26.862Z,4.03
2018-05-27T10:22:54.441Z,3.60
2018-05-27T10:25:22.013Z,3.10
2018-05-27T10:27:49.566Z,3.60
2018-05-27T10:30:17.165Z,9.50
2018-05-27T10:32:44.735Z,3.50
2018-05-27T10:35:12.261Z,3.43
2018-05-27T10:37:39.866Z,3.27
2018-05-27T10:40:07.433Z,3.10
2018-05-27T10:42:34.977Z,2.90
2018-05-27T10:45:02.564Z,3.47
2018-05-27T10:47:30.106Z,3.47
2018-05-27T10:49:57.677Z,3.30
2018-05-27T10:52:25.271Z,3.30
2018-05-27T10:54:52.853Z,3.23
2018-05-27T10:57:20.840Z,3.23
2018-05-27T10:59:48.431Z,3.67
2018-05-27T11:02:15.985Z,3.23
2018-05-27T11:04:43.532Z,3.37
2018-05-27T11:07:11.131Z,3.00
2018-05-27T11:09:38.693Z,3.27
2018-05-27T11:12:06.289Z,3.13
2018-05-27T11:14:33.865Z,3.10
2018-05-27T11:17:01.441Z,3.20
2018-05-27T11:19:29.113Z,3.30
2018-05-27T11:21:56.953Z,3.83
2018-05-27T11:24:24.788Z,3.60
2018-05-27T11:26:52.358Z,3.60
2018-05-27T11:29:19.894Z,3.57
2018-05-27T11:31:47.476Z,3.50
2018-05-27T11:34:15.020Z,3.40
2018-05-27T11:36:43.319Z,3.70
2018-05-27T11:39:14.689Z,3.30
2018-05-27T11:41:42.350Z,3.30
2018-05-27T11:44:09.890Z,3.50
2018-05-27T11:46:37.486Z,4.13
2018-05-27T11:49:05.014Z,3.10
2018-05-27T11:51:32.607Z,3.37
2018-05-27T11:54:00.181Z,3.43
2018-05-27T11:56:27.796Z,3.20
2018-05-27T11:58:55.337Z,5.07
2018-05-27T12:01:22.912Z,4.23
2018-05-27T12:03:50.506Z,3.37
2018-05-27T12:06:18.063Z,2.97
2018-05-27T12:08:45.630Z,3.60
2018-05-27T12:11:13.174Z,3.90
2018-05-27T12:13:40.767Z,3.53
2018-05-27T12:16:08.335Z,4.57
2018-05-27T12:18:35.920Z,4.67
2018-05-27T12:21:03.583Z,4.60
2018-05-27T12:23:31.149Z,4.60
2018-05-27T12:25:58.717Z,4.57
2018-05-27T12:28:26.348Z,4.13
2018-05-27T12:30:53.881Z,4.53
2018-05-27T12:33:21.454Z,4.73
2018-05-27T12:35:49.020Z,4.37
2018-05-27T12:38:16.604Z,3.93
2018-05-27T12:40:44.163Z,5.07
2018-05-27T12:43:11.811Z,4.67
2018-05-27T12:45:39.351Z,4.37
2018-05-27T12:48:07.325Z,4.10
2018-05-27T12:50:34.856Z,4.07
2018-05-27T12:53:02.433Z,4.27
2018-05-27T12:55:30.007Z,4.60
2018-05-27T12:57:57.577Z,4.77
2018-05-27T13:00:25.149Z,4.23
2018-05-27T13:02:52.749Z,5.00
2018-05-27T13:05:20.306Z,4.47
2018-05-27T13:07:47.874Z,4.20
2018-05-27T13:10:15.481Z,3.93
2018-05-27T13:12:43.122Z,4.80
2018-05-27T13:15:11.301Z,4.80
2018-05-27T13:17:38.848Z,5.57
2018-05-27T13:20:06.401Z,4.37
2018-05-27T13:22:34.186Z,3.77
2018-05-27T13:25:01.840Z,5.03
2018-05-27T13:27:29.471Z,4.53
2018-05-27T13:29:57.041Z,3.87
2018-05-27T13:32:25.305Z,4.10
2018-05-27T13:34:52.893Z,3.97
2018-05-27T13:37:20.482Z,4.00
2018-05-27T13:39:48.089Z,4.30
2018-05-27T13:42:15.679Z,3.90
2018-05-27T13:44:43.867Z,4.20
2018-05-27T13:47:11.421Z,4.77
2018-05-27T13:49:39.424Z,3.40
2018-05-27T13:52:06.963Z,3.80
2018-05-27T13:54:34.940Z,3.80
2018-05-27T13:57:02.487Z,3.40
2018-05-27T13:59:30.523Z,3.57
2018-05-27T14:01:58.963Z,3.30
2018-05-27T14:04:26.603Z,3.50
2018-05-27T14:06:54.180Z,3.63
2018-05-27T14:09:21.806Z,3.37
2018-05-27T14:11:49.390Z,3.53
2018-05-27T14:14:16.990Z,3.40
2018-05-27T14:16:44.605Z,4.27
2018-05-27T14:19:13.245Z,3.50
2018-05-27T14:21:40.853Z,4.73
2018-05-27T14:24:08.449Z,3.40
2018-05-27T14:26:36.032Z,3.20
2018-05-27T14:29:03.625Z,3.23
2018-05-27T14:31:31.200Z,3.00
2018-05-27T14:33:58.728Z,3.47
2018-05-27T14:36:26.292Z,3.07
2018-05-27T14:38:53.867Z,3.40
2018-05-27T14:41:21.436Z,3.77
2018-05-27T14:43:48.987Z,3.23
2018-05-27T14:46:16.609Z,4.07
2018-05-27T14:48:44.209Z,3.60
2018-05-27T14:51:11.795Z,3.20
2018-05-27T14:53:39.306Z,3.90
2018-05-27T14:56:07.270Z,3.37
2018-05-27T14:58:34.874Z,3.90
2018-05-27T15:01:02.457Z,3.10
2018-05-27T15:03:30.033Z,3.50
2018-05-27T15:05:57.662Z,3.50
2018-05-27T15:08:25.274Z,3.60
2018-05-27T15:10:53.250Z,3.73
2018-05-27T15:13:20.869Z,3.53
2018-05-27T15:15:48.494Z,3.50
2018-05-27T15:18:16.107Z,3.50
2018-05-27T15:20:43.697Z,3.87
2018-05-27T15:23:11.291Z,3.77
2018-05-27T15:25:38.863Z,3.70
2018-05-27T15:28:06.453Z,3.90
2018-05-27T15:30:34.446Z,3.60
2018-05-27T15:33:02.002Z,3.87
2018-05-27T15:35:29.577Z,3.80
2018-05-27T15:37:57.166Z,3.77
2018-05-27T15:40:24.799Z,3.57
2018-05-27T15:42:52.379Z,3.70
2018-05-27T15:45:19.927Z,3.40
2018-05-27T15:47:47.555Z,3.33
2018-05-27T15:50:15.163Z,3.97
2018-05-27T15:52:42.744Z,5.53
2018-05-27T15:55:10.321Z,3.40
2018-05-27T15:57:37.879Z,11.37
2018-05-27T16:00:05.520Z,4.93
2018-05-27T16:02:33.086Z,5.23
2018-05-27T16:05:00.660Z,5.43
2018-05-27T16:07:28.374Z,21.87
2018-05-27T16:09:55.898Z,8.30
2018-05-27T16:12:23.490Z,5.57
2018-05-27T16:14:51.057Z,4.67
2018-05-27T16:17:18.666Z,4.10
2018-05-27T16:19:46.189Z,4.80
2018-05-27T16:22:13.805Z,4.50
2018-05-27T16:24:43.594Z,5.20
2018-05-27T16:27:11.190Z,8.67
2018-05-27T16:29:38.788Z,5.77
2018-05-27T16:32:06.414Z,4.97
2018-05-27T16:34:34.385Z,4.93
2018-05-27T16:37:01.931Z,4.73
2018-05-27T16:39:29.503Z,5.43
2018-05-27T16:41:57.093Z,4.90
2018-05-27T16:44:24.691Z,5.87
2018-05-27T16:46:52.267Z,5.03
2018-05-27T16:49:19.900Z,4.90
2018-05-27T16:51:47.490Z,5.53
2018-05-27T16:54:15.080Z,4.87
2018-05-27T16:56:42.669Z,4.47
2018-05-27T16:59:10.222Z,4.10
2018-05-27T17:01:37.857Z,4.33
2018-05-27T17:04:05.460Z,4.90
2018-05-27T17:06:33.004Z,4.10
2018-05-27T17:09:00.602Z,4.40
2018-05-27T17:11:28.147Z,4.10
2018-05-27T17:13:55.767Z,4.43
2018-05-27T17:16:23.414Z,4.33
2018-05-27T17:18:50.967Z,4.23
2018-05-27T17:21:18.554Z,3.97
2018-05-27T17:23:46.123Z,4.13
2018-05-27T17:26:13.687Z,4.20
2018-05-27T17:28:41.317Z,4.30
2018-05-27T17:31:08.943Z,4.50
2018-05-27T17:33:36.573Z,4.77
2018-05-27T17:36:04.198Z,4.47
2018-05-27T17:38:31.753Z,4.80
2018-05-27T17:40:59.307Z,4.33
2018-05-27T17:43:26.914Z,5.10
2018-05-27T17:45:54.529Z,4.73
2018-05-27T17:48:22.092Z,4.43
2018-05-27T17:50:49.666Z,4.47
2018-05-27T17:53:17.237Z,4.80
2018-05-27T17:55:44.840Z,4.40
2018-05-27T17:58:12.367Z,4.57
2018-05-27T18:00:39.959Z,5.03
2018-05-27T18:03:07.521Z,4.30
2018-05-27T18:05:35.481Z,4.73
2018-05-27T18:08:03.064Z,4.70
2018-05-27T18:10:30.615Z,4.80
2018-05-27T18:12:58.170Z,4.67
2018-05-27T18:15:25.750Z,4.30
2018-05-27T18:17:53.285Z,4.47
2018-05-27T18:20:20.908Z,4.33
2018-05-27T18:22:48.552Z,4.63
2018-05-27T18:25:16.142Z,4.30
2018-05-27T18:27:43.686Z,4.67
2018-05-27T18:30:11.290Z,4.83
2018-05-27T18:32:38.919Z,5.03
2018-05-27T18:35:06.511Z,4.63
2018-05-27T18:37:34.050Z,4.47
2018-05-27T18:40:02.042Z,4.20
2018-05-27T18:42:29.646Z,4.70
2018-05-27T18:44:57.270Z,5.20
2018-05-27T18:47:24.859Z,5.23
2018-05-27T18:49:52.391Z,5.07
2018-05-27T18:52:19.963Z,5.13
2018-05-27T18:54:47.543Z,4.80
2018-05-27T18:57:15.170Z,5.13
2018-05-27T18:59:42.721Z,5.33
2018-05-27T19:02:10.357Z,5.20
2018-05-27T19:04:37.958Z,4.80
2018-05-27T19:07:05.552Z,5.53
2018-05-27T19:09:33.171Z,5.30
2018-05-27T19:12:01.813Z,5.03
2018-05-27T19:14:29.806Z,5.80
2018-05-27T19:16:57.389Z,5.13
2018-05-27T19:19:24.947Z,5.00
2018-05-27T19:21:52.563Z,5.47
2018-05-27T19:24:20.567Z,5.70
2018-05-27T19:26:48.151Z,5.70
2018-05-27T19:29:15.706Z,5.60
2018-05-27T19:31:43.283Z,5.20
2018-05-27T19:34:10.822Z,5.73
2018-05-27T19:36:38.430Z,5.47
2018-05-27T19:39:05.969Z,5.70
2018-05-27T19:41:33.523Z,5.70
2018-05-27T19:44:01.114Z,6.00
2018-05-27T19:46:28.701Z,6.13
2018-05-27T19:48:56.257Z,5.90
2018-05-27T19:51:23.829Z,5.13
2018-05-27T19:53:51.373Z,5.17
2018-05-27T19:56:18.957Z,5.47
2018-05-27T19:58:46.506Z,5.63
2018-05-27T20:01:14.032Z,6.13
2018-05-27T20:03:41.622Z,5.80
2018-05-27T20:06:09.260Z,5.70
2018-05-27T20:08:36.840Z,6.13
2018-05-27T20:11:04.489Z,5.97
2018-05-27T20:13:32.170Z,5.70
2018-05-27T20:16:05.310Z,6.07
2018-05-27T20:18:32.909Z,5.63
2018-05-27T20:21:00.479Z,6.03
2018-05-27T20:23:28.058Z,6.40
2018-05-27T20:25:55.605Z,6.10
2018-05-27T20:28:23.190Z,6.80
2018-05-27T20:30:51.157Z,5.77
2018-05-27T20:33:19.160Z,7.00
2018-05-27T20:35:46.708Z,6.77
2018-05-27T20:38:14.257Z,6.10
2018-05-27T20:40:41.870Z,6.33
2018-05-27T20:43:09.480Z,5.90
2018-05-27T20:45:37.061Z,6.23
2018-05-27T20:48:04.652Z,6.13
2018-05-27T20:50:32.293Z,6.37
2018-05-27T20:52:59.952Z,6.87
2018-05-27T20:55:27.517Z,6.70
2018-05-27T20:57:55.139Z,6.47
2018-05-27T21:00:22.683Z,6.37
2018-05-27T21:02:50.301Z,6.60
2018-05-27T21:05:17.849Z,6.37
2018-05-27T21:07:45.438Z,6.37
2018-05-27T21:10:13.381Z,6.17
2018-05-27T21:12:40.915Z,6.10
2018-05-27T21:15:08.506Z,6.40
2018-05-27T21:17:36.075Z,6.93
2018-05-27T21:20:03.689Z,6.87
2018-05-27T21:22:31.230Z,6.77
2018-05-27T21:24:58.851Z,7.07
2018-05-27T21:27:26.398Z,6.77
2018-05-27T21:29:54.031Z,6.83
2018-05-27T21:32:21.594Z,6.30
2018-05-27T21:34:49.202Z,6.93
2018-05-27T21:37:16.836Z,7.40
2018-05-27T21:39:44.435Z,7.10
2018-05-27T21:42:12.015Z,7.27
2018-05-27T21:44:39.634Z,6.57
2018-05-27T21:47:07.195Z,7.10
2018-05-27T21:49:35.116Z,7.30
2018-05-27T21:52:02.687Z,7.60
2018-05-27T21:54:30.285Z,6.67
2018-05-27T21:56:57.879Z,7.13
2018-05-27T21:59:25.474Z,7.17
2018-05-27T22:01:53.010Z,7.43
2018-05-27T22:04:20.581Z,6.73
2018-05-27T22:06:48.116Z,7.13
2018-05-27T22:09:15.705Z,7.17
2018-05-27T22:11:43.262Z,7.20
2018-05-27T22:14:10.865Z,6.77
2018-05-27T22:16:38.502Z,7.23
2018-05-27T22:19:06.042Z,7.40
2018-05-27T22:21:33.681Z,5.90
2018-05-27T22:24:01.236Z,7.10
2018-05-27T22:26:28.851Z,5.90
2018-05-27T22:28:56.422Z,6.40
2018-05-27T22:31:24.050Z,6.60
2018-05-27T22:33:51.629Z,6.67
2018-05-27T22:36:19.209Z,6.73
2018-05-27T22:38:46.779Z,6.80
2018-05-27T22:41:14.338Z,7.23
2018-05-27T22:43:41.874Z,7.17
2018-05-27T22:46:09.473Z,7.10
2018-05-27T22:48:37.035Z,7.30
2018-05-27T22:51:04.613Z,7.07
2018-05-27T22:53:32.140Z,7.30
2018-05-27T22:55:59.798Z,6.87
2018-05-27T22:58:27.349Z,7.40
2018-05-27T23:00:54.945Z,7.43
2018-05-27T23:03:22.500Z,8.00
2018-05-27T23:05:50.117Z,6.87
2018-05-27T23:08:17.670Z,7.27
2018-05-27T23:10:45.260Z,8.20
2018-05-27T23:13:12.882Z,7.57
2018-05-27T23:15:40.429Z,7.47
2018-05-27T23:18:07.955Z,7.33
2018-05-27T23:20:35.515Z,6.80
2018-05-27T23:23:03.070Z,7.10
2018-05-27T23:25:30.677Z,7.17
2018-05-27T23:28:00.316Z,6.40
2018-05-27T23:30:29.219Z,6.37
2018-05-27T23:32:57.609Z,6.80
2018-05-27T23:35:25.324Z,7.03
2018-05-27T23:37:55.002Z,6.63
2018-05-27T23:40:23.308Z,7.10
2018-05-27T23:42:50.938Z,6.67
2018-05-27T23:45:18.941Z,6.67
2018-05-27T23:47:46.542Z,6.40
2018-05-27T23:50:14.100Z,6.63
2018-05-27T23:52:41.681Z,6.53
2018-05-27T23:55:09.231Z,6.83
2018-05-27T23:57:36.864Z,6.77
